createdAt,value
2018-11-29T00:00:20.585Z,30.20
2018-11-29T00:02:49.611Z,29.20
2018-11-29T00:05:18.257Z,30.15
2018-11-29T00:07:46.886Z,31.02
2018-11-29T00:10:16.480Z,29.50
2018-11-29T00:12:45.107Z,30.55
2018-11-29T00:15:14.639Z,30.17
2018-11-29T00:17:43.266Z,31.30
2018-11-29T00:20:16.602Z,30.23
2018-11-29T00:22:45.992Z,30.62
2018-11-29T00:25:15.419Z,31.33
2018-11-29T00:27:44.276Z,30.62
2018-11-29T00:30:14.931Z,29.67
2018-11-29T00:32:43.548Z,29.65
2018-11-29T00:35:13.916Z,29.55
2018-11-29T00:37:42.571Z,29.03
2018-11-29T00:40:15.123Z,29.37
2018-11-29T00:42:43.745Z,28.17
2018-11-29T00:45:14.077Z,28.67
2018-11-29T00:47:42.866Z,28.00
2018-11-29T00:50:13.421Z,28.50
2018-11-29T00:52:42.757Z,28.57
2018-11-29T00:55:13.070Z,28.05
2018-11-29T00:57:41.766Z,29.25
2018-11-29T01:00:13.626Z,27.73
2018-11-29T01:02:42.290Z,28.80
2018-11-29T01:05:13.102Z,28.23
2018-11-29T01:07:41.731Z,28.50
2018-11-29T01:10:13.150Z,27.65
2018-11-29T01:12:41.974Z,28.20
2018-11-29T01:15:15.457Z,27.73
2018-11-29T01:17:44.885Z,27.70
2018-11-29T01:20:14.513Z,27.27
2018-11-29T01:22:43.130Z,27.37
2018-11-29T01:25:12.731Z,27.45
2018-11-29T01:27:41.709Z,27.37
2018-11-29T01:30:12.149Z,28.10
2018-11-29T01:32:40.791Z,26.70
2018-11-29T01:35:10.481Z,26.35
2018-11-29T01:37:39.108Z,27.15
2018-11-29T01:40:23.756Z,26.23
2018-11-29T01:43:26.385Z,26.25
2018-11-29T01:45:55.025Z,25.92
2018-11-29T01:48:23.623Z,26.57
2018-11-29T01:50:52.178Z,26.00
2018-11-29T01:53:20.807Z,26.05
2018-11-29T01:55:49.361Z,25.52
2018-11-29T01:58:17.999Z,25.43
2018-11-29T02:00:46.568Z,26.05
2018-11-29T02:03:15.235Z,25.43
2018-11-29T02:05:43.824Z,25.37
2018-11-29T02:08:12.482Z,24.60
2018-11-29T02:10:46.586Z,25.20
2018-11-29T02:13:15.148Z,24.90
2018-11-29T02:15:43.780Z,24.12
2018-11-29T02:18:12.439Z,24.43
2018-11-29T02:20:41.022Z,25.53
2018-11-29T02:23:09.608Z,24.75
2018-11-29T02:25:38.270Z,24.00
2018-11-29T02:28:06.886Z,24.80
2018-11-29T02:30:35.486Z,23.83
2018-11-29T02:33:04.142Z,24.23
2018-11-29T02:35:32.726Z,23.75
2018-11-29T02:38:01.332Z,22.95
2018-11-29T02:40:29.942Z,24.65
2018-11-29T02:42:58.485Z,24.40
2018-11-29T02:45:27.133Z,23.55
2018-11-29T02:47:55.726Z,23.27
2018-11-29T02:50:24.284Z,22.70
2018-11-29T02:52:52.891Z,22.40
2018-11-29T02:55:21.530Z,23.75
2018-11-29T02:57:50.148Z,23.62
2018-11-29T03:00:19.556Z,23.57
2018-11-29T03:02:48.330Z,22.93
2018-11-29T03:05:17.466Z,23.20
2018-11-29T03:07:46.327Z,23.30
2018-11-29T03:10:20.385Z,23.07
2018-11-29T03:12:48.934Z,22.40
2018-11-29T03:15:17.565Z,22.45
2018-11-29T03:17:46.180Z,22.75
2018-11-29T03:20:15.022Z,22.02
2018-11-29T03:22:43.681Z,21.57
2018-11-29T03:25:15.105Z,21.52
2018-11-29T03:27:44.031Z,21.97
2018-11-29T03:30:13.654Z,21.75
2018-11-29T03:32:42.283Z,21.73
2018-11-29T03:35:11.801Z,21.50
2018-11-29T03:37:40.411Z,20.65
2018-11-29T03:40:12.390Z,22.67
2018-11-29T03:42:42.433Z,21.80
2018-11-29T03:45:12.097Z,21.82
2018-11-29T03:47:40.754Z,21.05
2018-11-29T03:50:11.655Z,21.07
2018-11-29T03:52:40.271Z,20.85
2018-11-29T03:55:09.695Z,21.07
2018-11-29T03:57:38.918Z,20.55
2018-11-29T04:00:15.024Z,20.72
2018-11-29T04:02:43.994Z,20.45
2018-11-29T04:05:12.562Z,20.97
2018-11-29T04:07:41.193Z,20.37
2018-11-29T04:10:12.903Z,20.60
2018-11-29T04:12:41.865Z,20.80
2018-11-29T04:15:11.655Z,20.43
2018-11-29T04:17:40.875Z,19.80
2018-11-29T04:20:10.656Z,19.82
2018-11-29T04:22:39.314Z,19.62
2018-11-29T04:25:09.521Z,20.30
2018-11-29T04:27:38.131Z,19.82
2018-11-29T04:30:09.339Z,19.73
2018-11-29T04:32:37.922Z,19.20
2018-11-29T04:35:07.947Z,19.82
2018-11-29T04:37:36.596Z,19.73
2018-11-29T04:40:05.962Z,19.90
2018-11-29T04:42:34.549Z,19.62
2018-11-29T04:45:04.563Z,20.15
2018-11-29T04:47:33.134Z,18.57
2018-11-29T04:50:01.707Z,18.85
2018-11-29T04:52:30.323Z,18.92
2018-11-29T04:54:58.943Z,18.77
2018-11-29T04:57:27.564Z,19.27
2018-11-29T04:59:56.140Z,19.10
2018-11-29T05:02:24.771Z,19.70
2018-11-29T05:04:53.385Z,18.65
2018-11-29T05:07:21.954Z,19.27
2018-11-29T05:09:50.612Z,18.23
2018-11-29T05:12:19.243Z,19.02
2018-11-29T05:14:47.871Z,18.80
2018-11-29T05:17:16.508Z,17.73
2018-11-29T05:19:45.085Z,18.63
2018-11-29T05:22:13.742Z,18.27
2018-11-29T05:24:42.289Z,18.52
2018-11-29T05:27:10.998Z,18.10
2018-11-29T05:29:39.658Z,18.07
2018-11-29T05:32:08.300Z,19.17
2018-11-29T05:34:36.949Z,18.52
2018-11-29T05:37:06.169Z,18.50
2018-11-29T05:39:34.775Z,17.85
2018-11-29T05:42:03.375Z,18.05
2018-11-29T05:44:31.934Z,17.70
2018-11-29T05:47:00.604Z,17.95
2018-11-29T05:49:29.169Z,17.73
2018-11-29T05:51:57.805Z,18.67
2018-11-29T05:54:26.556Z,17.32
2018-11-29T05:56:55.179Z,17.02
2018-11-29T05:59:23.773Z,17.60
2018-11-29T06:01:53.568Z,16.80
2018-11-29T06:04:22.567Z,17.67
2018-11-29T06:06:51.202Z,16.95
2018-11-29T06:09:19.784Z,16.30
2018-11-29T06:11:48.329Z,16.95
2018-11-29T06:14:16.969Z,16.42
2018-11-29T06:16:45.604Z,17.10
2018-11-29T06:19:15.678Z,17.10
2018-11-29T06:21:44.282Z,16.77
2018-11-29T06:24:13.639Z,16.73
2018-11-29T06:26:41.563Z,17.00
2018-11-29T06:29:10.207Z,16.67
2018-11-29T06:31:38.776Z,16.90
2018-11-29T06:34:07.753Z,16.67
2018-11-29T06:36:36.346Z,15.68
2018-11-29T06:39:08.230Z,16.27
2018-11-29T06:41:36.791Z,16.70
2018-11-29T06:44:05.654Z,16.45
2018-11-29T06:46:34.249Z,17.00
2018-11-29T06:49:02.799Z,16.87
2018-11-29T06:51:31.387Z,16.48
2018-11-29T06:54:00.041Z,16.40
2018-11-29T06:56:28.634Z,16.87
2018-11-29T06:58:57.226Z,16.43
2018-11-29T07:01:25.847Z,15.72
2018-11-29T07:03:54.406Z,16.95
2018-11-29T07:06:22.970Z,16.45
2018-11-29T07:08:51.553Z,16.80
2018-11-29T07:11:20.113Z,16.03
2018-11-29T07:13:48.683Z,17.07
2018-11-29T07:16:17.291Z,16.30
2018-11-29T07:18:45.914Z,15.80
2018-11-29T07:21:26.291Z,15.40
2018-11-29T07:23:54.971Z,16.80
2018-11-29T07:26:23.654Z,16.52
2018-11-29T07:28:52.232Z,15.93
2018-11-29T07:31:20.896Z,16.80
2018-11-29T07:33:49.566Z,16.85
2018-11-29T07:36:18.200Z,16.12
2018-11-29T07:38:46.841Z,16.32
2018-11-29T07:41:15.701Z,15.68
2018-11-29T07:43:44.318Z,16.42
2018-11-29T07:46:12.916Z,16.23
2018-11-29T07:48:41.534Z,16.75
2018-11-29T07:51:10.136Z,16.77
2018-11-29T07:53:40.560Z,16.82
2018-11-29T07:56:09.161Z,16.52
2018-11-29T07:58:37.757Z,16.40
2018-11-29T08:01:07.001Z,16.77
2018-11-29T08:03:35.573Z,16.57
2018-11-29T08:06:04.137Z,16.67
2018-11-29T08:08:32.803Z,16.87
2018-11-29T08:11:01.403Z,16.65
2018-11-29T08:13:29.944Z,15.85
2018-11-29T08:15:58.551Z,16.62
2018-11-29T08:18:27.121Z,16.75
2018-11-29T08:20:55.708Z,16.75
2018-11-29T08:23:24.344Z,15.93
2018-11-29T08:25:54.480Z,16.87
2018-11-29T08:28:23.030Z,16.70
2018-11-29T08:30:51.639Z,16.45
2018-11-29T08:33:20.251Z,16.65
2018-11-29T08:35:48.866Z,16.07
2018-11-29T08:38:17.509Z,16.10
2018-11-29T08:40:46.143Z,16.97
2018-11-29T08:43:14.690Z,16.57
2018-11-29T08:45:43.280Z,16.75
2018-11-29T08:48:11.939Z,16.07
2018-11-29T08:50:40.566Z,16.17
2018-11-29T08:53:09.200Z,16.12
2018-11-29T08:55:37.744Z,15.77
2018-11-29T08:58:06.761Z,16.55
2018-11-29T09:00:35.399Z,16.20
2018-11-29T09:03:04.142Z,16.10
2018-11-29T09:05:34.104Z,15.75
2018-11-29T09:08:01.394Z,16.73
2018-11-29T09:10:31.685Z,16.82
2018-11-29T09:12:58.802Z,16.23
2018-11-29T09:15:27.387Z,15.90
2018-11-29T09:17:55.956Z,15.77
2018-11-29T09:20:24.573Z,15.90
2018-11-29T09:22:53.270Z,16.27
2018-11-29T09:25:22.649Z,16.00
2018-11-29T09:27:53.166Z,15.55
2018-11-29T09:30:22.575Z,15.70
2018-11-29T09:32:52.196Z,15.90
2018-11-29T09:35:20.819Z,15.72
2018-11-29T09:37:49.371Z,15.67
2018-11-29T09:40:18.646Z,15.05
2018-11-29T09:42:47.368Z,15.00
2018-11-29T09:45:19.949Z,15.55
2018-11-29T09:47:50.513Z,14.83
2018-11-29T09:50:19.347Z,15.68
2018-11-29T09:52:47.928Z,14.95
2018-11-29T09:55:17.315Z,14.58
2018-11-29T09:57:46.729Z,15.30
2018-11-29T10:00:27.557Z,15.08
2018-11-29T10:03:26.136Z,15.15
2018-11-29T10:05:54.915Z,14.85
2018-11-29T10:08:26.206Z,14.73
2018-11-29T10:10:52.100Z,14.58
2018-11-29T10:13:20.679Z,14.68
2018-11-29T10:15:49.308Z,14.98
2018-11-29T10:18:17.965Z,14.75
2018-11-29T10:20:46.587Z,14.93
2018-11-29T10:23:15.167Z,14.83
2018-11-29T10:25:43.771Z,14.30
2018-11-29T10:28:14.575Z,14.98
2018-11-29T10:30:51.018Z,15.10
2018-11-29T10:33:19.616Z,15.35
2018-11-29T10:35:48.185Z,14.18
2018-11-29T10:38:16.828Z,14.20
2018-11-29T10:40:45.389Z,14.83
2018-11-29T10:43:13.953Z,14.50
2018-11-29T10:45:42.548Z,14.30
2018-11-29T10:48:14.735Z,14.68
2018-11-29T10:50:43.357Z,14.23
2018-11-29T10:53:11.976Z,14.50
2018-11-29T10:55:40.574Z,15.13
2018-11-29T10:58:10.074Z,14.63
2018-11-29T11:00:44.108Z,14.03
2018-11-29T11:03:18.974Z,14.93
2018-11-29T11:05:48.940Z,13.40
2018-11-29T11:08:17.668Z,14.38
2018-11-29T11:10:46.287Z,14.10
2018-11-29T11:13:14.841Z,13.70
2018-11-29T11:15:43.446Z,14.27
2018-11-29T11:18:13.032Z,14.13
2018-11-29T11:20:41.596Z,14.15
2018-11-29T11:23:10.213Z,14.40
2018-11-29T11:25:38.838Z,14.10
2018-11-29T11:28:08.603Z,13.30
2018-11-29T11:30:40.935Z,14.28
2018-11-29T11:33:09.587Z,13.68
2018-11-29T11:35:38.139Z,12.73
2018-11-29T11:38:06.817Z,14.10
2018-11-29T11:40:35.367Z,14.00
2018-11-29T11:43:05.312Z,12.90
2018-11-29T11:45:32.812Z,13.10
2018-11-29T11:48:03.436Z,13.90
2018-11-29T11:50:30.058Z,13.35
2018-11-29T11:52:58.635Z,12.98
2018-11-29T11:55:30.260Z,12.80
2018-11-29T11:57:55.845Z,13.62
2018-11-29T12:00:25.484Z,12.53
2018-11-29T12:02:56.503Z,13.03
2018-11-29T12:05:26.786Z,13.10
2018-11-29T12:07:55.330Z,13.83
2018-11-29T12:10:23.951Z,12.50
2018-11-29T12:12:52.590Z,13.25
2018-11-29T12:15:21.143Z,12.98
2018-11-29T12:17:49.749Z,12.93
2018-11-29T12:20:19.121Z,12.18
2018-11-29T12:22:47.746Z,12.28
2018-11-29T12:25:17.407Z,12.68
2018-11-29T12:27:46.041Z,13.22
2018-11-29T12:30:19.844Z,12.88
2018-11-29T12:32:48.582Z,12.57
2018-11-29T12:35:17.261Z,13.10
2018-11-29T12:37:45.957Z,12.75
2018-11-29T12:40:16.027Z,11.83
2018-11-29T12:42:44.681Z,12.65
2018-11-29T12:45:14.899Z,12.23
2018-11-29T12:47:43.951Z,12.28
2018-11-29T12:50:16.430Z,13.30
2018-11-29T12:52:45.112Z,12.47
2018-11-29T12:55:14.931Z,11.65
2018-11-29T12:57:43.680Z,12.03
2018-11-29T13:00:16.082Z,12.40
2018-11-29T13:02:46.699Z,11.95
2018-11-29T13:05:15.295Z,12.10
2018-11-29T13:07:43.905Z,11.95
2018-11-29T13:10:13.617Z,11.70
2018-11-29T13:12:42.180Z,12.15
2018-11-29T13:15:14.971Z,12.33
2018-11-29T13:17:43.500Z,11.83
2018-11-29T13:20:14.423Z,12.43
2018-11-29T13:22:42.975Z,11.70
2018-11-29T13:25:13.096Z,11.53
2018-11-29T13:27:41.718Z,11.65
2018-11-29T13:30:11.771Z,11.53
2018-11-29T13:32:40.441Z,12.20
2018-11-29T13:35:42.125Z,10.68
2018-11-29T13:38:12.225Z,11.43
2018-11-29T13:40:43.624Z,10.80
2018-11-29T13:43:12.231Z,11.48
2018-11-29T13:45:40.912Z,11.05
2018-11-29T13:48:10.378Z,11.90
2018-11-29T13:50:39.898Z,11.50
2018-11-29T13:53:08.624Z,11.10
2018-11-29T13:55:37.785Z,11.22
2018-11-29T13:58:06.505Z,11.50
2018-11-29T14:00:35.214Z,10.72
2018-11-29T14:03:10.770Z,10.85
2018-11-29T14:05:39.468Z,10.58
2018-11-29T14:08:09.039Z,11.33
2018-11-29T14:10:38.622Z,11.05
2018-11-29T14:13:08.603Z,10.53
2018-11-29T14:15:37.855Z,9.98
2018-11-29T14:18:07.320Z,10.75
2018-11-29T14:20:36.022Z,10.53
2018-11-29T14:23:04.901Z,10.82
2018-11-29T14:25:33.664Z,10.60
2018-11-29T14:28:02.283Z,10.82
2018-11-29T14:30:31.080Z,10.80
2018-11-29T14:33:00.705Z,10.53
2018-11-29T14:35:29.327Z,10.65
2018-11-29T14:37:57.958Z,10.25
2018-11-29T14:40:29.028Z,10.03
2018-11-29T14:42:57.675Z,10.43
2018-11-29T14:45:26.969Z,10.20
2018-11-29T14:47:56.140Z,10.40
2018-11-29T14:50:41.142Z,11.33
2018-11-29T14:53:10.278Z,10.45
2018-11-29T14:55:39.585Z,10.70
2018-11-29T14:58:13.511Z,10.55
2018-11-29T15:00:42.210Z,10.88
2018-11-29T15:03:20.179Z,10.05
2018-11-29T15:05:48.822Z,10.28
2018-11-29T15:08:17.388Z,10.57
2018-11-29T15:10:46.055Z,10.58
2018-11-29T15:13:14.741Z,10.40
2018-11-29T15:15:43.818Z,10.65
2018-11-29T15:18:12.482Z,11.00
2018-11-29T15:20:45.469Z,10.20
2018-11-29T15:23:15.314Z,10.43
2018-11-29T15:25:43.901Z,10.85
2018-11-29T15:28:12.525Z,11.05
2018-11-29T15:30:41.085Z,10.88
2018-11-29T15:33:09.697Z,10.90
2018-11-29T15:35:38.321Z,10.30
2018-11-29T15:38:07.156Z,10.35
2018-11-29T15:40:36.336Z,10.25
2018-11-29T15:43:04.970Z,10.82
2018-11-29T15:45:33.769Z,10.25
2018-11-29T15:48:02.356Z,9.70
2018-11-29T15:50:30.963Z,10.03
2018-11-29T15:52:59.622Z,10.35
2018-11-29T15:55:28.222Z,9.68
2018-11-29T15:57:56.856Z,10.28
2018-11-29T16:00:28.433Z,11.00
2018-11-29T16:02:58.357Z,10.10
2018-11-29T16:05:27.034Z,10.65
2018-11-29T16:07:55.606Z,9.97
2018-11-29T16:10:25.365Z,10.50
2018-11-29T16:12:53.954Z,9.93
2018-11-29T16:15:22.615Z,10.53
2018-11-29T16:17:52.046Z,10.25
2018-11-29T16:20:27.948Z,10.40
2018-11-29T16:22:56.635Z,10.03
2018-11-29T16:25:25.237Z,9.93
2018-11-29T16:27:53.840Z,9.85
2018-11-29T16:30:26.766Z,10.35
2018-11-29T16:32:56.172Z,9.70
2018-11-29T16:35:24.762Z,10.30
2018-11-29T16:37:53.342Z,9.90
2018-11-29T16:40:21.952Z,10.00
2018-11-29T16:42:50.718Z,10.28
2018-11-29T16:45:19.306Z,9.45
2018-11-29T16:47:47.890Z,9.90
2018-11-29T16:50:18.402Z,10.25
2018-11-29T16:52:47.105Z,10.28
2018-11-29T16:55:15.670Z,9.98
2018-11-29T16:57:46.454Z,9.70
2018-11-29T17:00:18.294Z,9.95
2018-11-29T17:02:46.892Z,10.00
2018-11-29T17:05:15.533Z,10.20
2018-11-29T17:07:44.091Z,9.25
2018-11-29T17:10:14.918Z,9.75
2018-11-29T17:12:45.952Z,9.60
2018-11-29T17:15:15.850Z,10.00
2018-11-29T17:17:44.399Z,9.45
2018-11-29T17:20:14.161Z,9.93
2018-11-29T17:22:44.527Z,9.38
2018-11-29T17:25:13.512Z,9.50
2018-11-29T17:27:42.098Z,9.20
2018-11-29T17:30:20.819Z,9.10
2018-11-29T17:32:50.409Z,9.53
2018-11-29T17:35:19.011Z,9.33
2018-11-29T17:37:48.472Z,9.70
2018-11-29T17:40:19.097Z,9.23
2018-11-29T17:42:47.670Z,8.93
2018-11-29T17:45:18.409Z,9.33
2018-11-29T17:47:47.342Z,9.63
2018-11-29T17:50:22.044Z,9.33
2018-11-29T17:52:50.613Z,9.00
2018-11-29T17:55:19.252Z,9.35
2018-11-29T17:57:47.898Z,9.63
2018-11-29T18:00:22.504Z,9.35
2018-11-29T18:02:51.124Z,9.08
2018-11-29T18:05:19.809Z,9.03
2018-11-29T18:07:48.526Z,8.78
2018-11-29T18:10:19.126Z,9.13
2018-11-29T18:12:52.127Z,9.17
2018-11-29T18:15:22.433Z,8.73
2018-11-29T18:17:51.105Z,8.75
2018-11-29T18:20:19.764Z,9.28
2018-11-29T18:22:48.387Z,9.30
2018-11-29T18:25:18.316Z,9.50
2018-11-29T18:27:49.093Z,8.63
2018-11-29T18:30:18.880Z,8.65
2018-11-29T18:32:47.505Z,8.20
2018-11-29T18:35:16.223Z,8.70
2018-11-29T18:37:45.196Z,8.27
2018-11-29T18:40:18.856Z,8.43
2018-11-29T18:42:54.775Z,8.73
2018-11-29T18:45:24.146Z,8.77
2018-11-29T18:47:53.428Z,8.70
2018-11-29T18:50:23.075Z,8.50
2018-11-29T18:52:52.197Z,8.83
2018-11-29T18:55:22.949Z,8.83
2018-11-29T18:57:51.749Z,8.80
2018-11-29T19:00:25.608Z,8.48
2018-11-29T19:02:57.005Z,8.45
2018-11-29T19:05:22.967Z,8.20
2018-11-29T19:07:52.215Z,8.33
2018-11-29T19:10:21.102Z,8.10
2018-11-29T19:12:57.161Z,8.00
2018-11-29T19:15:25.761Z,8.13
2018-11-29T19:17:54.381Z,8.68
2018-11-29T19:20:23.062Z,8.00
2018-11-29T19:22:51.812Z,8.10
2018-11-29T19:25:20.847Z,8.68
2018-11-29T19:27:49.834Z,8.43
2018-11-29T19:30:20.652Z,8.80
2018-11-29T19:32:56.130Z,8.05
2018-11-29T19:35:26.439Z,8.60
2018-11-29T19:37:55.063Z,8.13
2018-11-29T19:40:23.707Z,8.95
2018-11-29T19:42:52.311Z,9.20
2018-11-29T19:45:20.935Z,8.83
2018-11-29T19:47:49.636Z,9.30
2018-11-29T19:50:19.094Z,8.80
2018-11-29T19:52:49.164Z,9.00
2018-11-29T19:55:19.265Z,8.43
2018-11-29T19:57:47.952Z,8.40
2018-11-29T20:00:16.589Z,9.13
2018-11-29T20:02:46.252Z,8.70
2018-11-29T20:05:14.822Z,9.08
2018-11-29T20:07:43.429Z,9.23
2018-11-29T20:10:16.081Z,9.05
2018-11-29T20:12:45.436Z,8.75
2018-11-29T20:15:16.472Z,9.13
2018-11-29T20:17:45.055Z,8.80
2018-11-29T20:20:13.828Z,8.98
2018-11-29T20:22:42.685Z,9.35
2018-11-29T20:25:12.736Z,9.43
2018-11-29T20:27:41.669Z,9.20
2018-11-29T20:30:12.708Z,9.00
2018-11-29T20:32:41.490Z,8.98
2018-11-29T20:35:10.802Z,9.13
2018-11-29T20:37:39.610Z,9.30
2018-11-29T20:40:11.575Z,9.10
2018-11-29T20:42:40.253Z,9.90
2018-11-29T20:45:15.423Z,9.40
2018-11-29T20:47:44.097Z,9.78
2018-11-29T20:50:14.809Z,10.05
2018-11-29T20:52:43.190Z,8.80
2018-11-29T20:55:14.554Z,9.38
2018-11-29T20:57:43.235Z,10.38
2018-11-29T21:00:14.276Z,9.93
2018-11-29T21:02:42.971Z,9.35
2018-11-29T21:05:12.967Z,9.55
2018-11-29T21:07:43.074Z,9.20
2018-11-29T21:10:19.610Z,9.50
2018-11-29T21:12:48.305Z,9.58
2018-11-29T21:15:16.960Z,9.10
2018-11-29T21:17:45.577Z,10.15
2018-11-29T21:20:17.444Z,9.28
2018-11-29T21:22:47.201Z,9.98
2018-11-29T21:25:18.194Z,10.10
2018-11-29T21:27:46.843Z,9.55
2018-11-29T21:30:16.350Z,9.70
2018-11-29T21:32:45.669Z,9.53
2018-11-29T21:35:15.501Z,9.40
2018-11-29T21:37:44.280Z,9.73
2018-11-29T21:40:20.666Z,9.83
2018-11-29T21:42:49.277Z,9.93
2018-11-29T21:45:17.988Z,9.47
2018-11-29T21:47:46.884Z,9.67
2018-11-29T21:50:15.504Z,9.63
2018-11-29T21:52:44.160Z,10.08
2018-11-29T21:55:12.834Z,9.65
2018-11-29T21:57:41.482Z,10.32
2018-11-29T22:00:14.538Z,10.65
2018-11-29T22:02:45.018Z,10.60
2018-11-29T22:05:13.675Z,10.55
2018-11-29T22:07:43.922Z,9.70
2018-11-29T22:10:12.582Z,10.72
2018-11-29T22:12:41.141Z,10.08
2018-11-29T22:15:10.941Z,10.63
2018-11-29T22:18:45.330Z,10.00
2018-11-29T22:21:13.990Z,10.23
2018-11-29T22:23:42.541Z,10.33
2018-11-29T22:26:13.431Z,10.30
2018-11-29T22:28:42.291Z,10.23
2018-11-29T22:31:10.989Z,10.95
2018-11-29T22:33:39.561Z,10.28
2018-11-29T22:36:08.191Z,10.58
2018-11-29T22:38:36.808Z,10.08
2018-11-29T22:41:05.814Z,9.68
2018-11-29T22:43:34.454Z,9.85
2018-11-29T22:46:02.971Z,9.68
2018-11-29T22:48:31.570Z,10.00
2018-11-29T22:51:00.135Z,9.73
2018-11-29T22:53:28.747Z,9.68
2018-11-29T22:55:57.458Z,10.20
2018-11-29T22:58:26.029Z,10.13
2018-11-29T23:00:54.710Z,9.65
2018-11-29T23:03:23.312Z,9.70
2018-11-29T23:05:51.946Z,9.80
2018-11-29T23:08:20.605Z,10.30
2018-11-29T23:10:50.807Z,9.63
2018-11-29T23:13:19.515Z,9.40
2018-11-29T23:15:48.079Z,9.25
2018-11-29T23:18:16.682Z,9.23
2018-11-29T23:20:45.399Z,9.63
2018-11-29T23:23:14.097Z,9.98
2018-11-29T23:25:42.778Z,9.50
2018-11-29T23:28:11.651Z,9.55
2018-11-29T23:30:40.295Z,9.05
2018-11-29T23:33:08.930Z,9.83
2018-11-29T23:35:37.585Z,9.67
2018-11-29T23:38:06.302Z,9.55
2018-11-29T23:40:34.891Z,9.53
2018-11-29T23:43:03.535Z,9.88
2018-11-29T23:45:32.099Z,9.15
2018-11-29T23:48:00.799Z,9.15
2018-11-29T23:50:30.489Z,9.40
2018-11-29T23:52:59.567Z,9.53
2018-11-29T23:55:28.196Z,9.00
2018-11-29T23:57:56.891Z,9.05
